Jork Reliance — V2CL2 — position and weather

sailwx.info

Track history (hours):
 
Tides and Currents Weather Stations Pressure Air Temp Water Temp Dewpoint Dewpoint Depression Visibility Wind Speed Wind Dir Waves Ship Positions

Jork Reliance

Last reported at 2015-Mar-30 05:24 UTC. Time now 2015-Mar-31 18:10 UTC.
Position N 50°30' E 000°05'.

Length 141 m; draft 6.5 m.

Type: Cargo ship. MMSI: 305033000.

Date/timePositionNaut miles runAvg speedWind from/ knotsBaromVisibWave heightAir tempDewpointWater temp
2015-Mar-30 05:24N 50°30' E 000°05'1112.7
2015-Mar-30 04:33N 50°32' E 000°21'1312.9
2015-Mar-30 03:34N 50°37' E 000°40'1413.7
2015-Mar-30 02:33N 50°45' E 000°57'1414.3
2015-Mar-30 01:33N 50°54' E 001°16'1414.6
2015-Mar-30 00:33N 51°04' E 001°32'1212.0
2015-Mar-29 23:33N 51°02' E 001°51'1211.7
2015-Mar-29 22:33N 51°03' E 002°09'2 2.0
2015-Mar-29 21:32N 51°01' E 002°11'0 0.0
2015-Mar-29 20:32N 51°01' E 002°11'0 0.0
2015-Mar-29 19:26N 51°01' E 002°11'0 0.0
2015-Mar-29 18:32N 51°01' E 002°11'0 0.0
2015-Mar-29 17:32N 51°01' E 002°11'0 0.0
2015-Mar-29 16:32N 51°01' E 002°11'0 0.0
2015-Mar-29 15:32N 51°01' E 002°11'0 0.0
2015-Mar-29 14:29N 51°01' E 002°11'0 0.0
2015-Mar-29 13:29N 51°01' E 002°11'0 0.0
2015-Mar-29 12:32N 51°01' E 002°11'0 0.0
2015-Mar-29 11:32N 51°01' E 002°11'0 0.0
2015-Mar-29 10:33N 51°01' E 002°11'0 0.0
2015-Mar-29 09:31N 51°01' E 002°11'0 0.0
2015-Mar-29 08:28N 51°01' E 002°11'0 0.0
2015-Mar-29 07:32N 51°01' E 002°11'1 0.6
2015-Mar-29 06:32N 51°01' E 002°10'1313.1
2015-Mar-29 05:33N 51°03' E 001°50'3 3.1
2015-Mar-29 04:34N 51°04' E 001°46'7 7.4
2015-Mar-29 03:33N 51°11' E 001°44'6 5.7
2015-Mar-29 02:33N 51°16' E 001°49'1212.3
2015-Mar-29 01:33N 51°26' E 002°01'1313.1
2015-Mar-29 00:33N 51°22' E 002°21'1312.8
2015-Mar-28 23:33N 51°24' E 002°41'1010.1
2015-Mar-28 22:33N 51°23' E 002°58'1413.8
2015-Mar-28 21:33N 51°24' E 003°20'1212.1
2015-Mar-28 20:34N 51°26' E 003°39'1211.6
2015-Mar-28 19:34N 51°23' E 003°57'8 8.3
2015-Mar-28 18:34N 51°23' E 004°10'7 6.7
2015-Mar-28 17:34N 51°18' E 004°16'0 0.1
2015-Mar-28 16:33N 51°18' E 004°16'0 0.0
2015-Mar-28 15:30N 51°18' E 004°16'0 0.0
2015-Mar-28 14:30N 51°18' E 004°16'0 0.0
2015-Mar-28 13:33N 51°18' E 004°16'0 0.1
2015-Mar-28 12:33N 51°18' E 004°16'0 0.1
2015-Mar-28 11:34N 51°18' E 004°16'3 2.8
2015-Mar-28 10:33N 51°17' E 004°20'1 1.4
2015-Mar-28 09:33N 51°18' E 004°20'2 1.3
2015-Mar-28 08:19N 51°19' E 004°19'0 0.0
2015-Mar-28 07:31N 51°19' E 004°19'0 0.0
2015-Mar-28 06:31N 51°19' E 004°19'0 0.0
2015-Mar-28 05:31N 51°19' E 004°19'0 0.0
2015-Mar-28 04:28N 51°19' E 004°19'0 0.0
2015-Mar-28 03:31N 51°19' E 004°19'0 0.0
2015-Mar-28 02:31N 51°19' E 004°19'0 0.0
2015-Mar-28 01:31N 51°19' E 004°19'0 0.0
2015-Mar-28 00:31N 51°19' E 004°19'0 0.0
2015-Mar-27 23:31N 51°19' E 004°19'0 0.0
2015-Mar-27 22:31N 51°19' E 004°19'0 0.0
2015-Mar-27 21:28N 51°19' E 004°19'0 0.0
2015-Mar-27 20:31N 51°19' E 004°19'0 0.0
2015-Mar-27 19:31N 51°19' E 004°19'0 0.0
2015-Mar-27 18:31N 51°19' E 004°19'0 0.0
2015-Mar-27 17:28N 51°19' E 004°19'0 0.0
2015-Mar-27 16:28N 51°19' E 004°19'0 0.0
2015-Mar-27 15:31N 51°19' E 004°19'0 0.0
2015-Mar-27 14:28N 51°19' E 004°19'0 0.0
2015-Mar-27 13:28N 51°19' E 004°19'0 0.0
2015-Mar-27 12:25N 51°19' E 004°19'0 0.0
2015-Mar-27 11:31N 51°19' E 004°19'0 0.0
2015-Mar-27 10:28N 51°19' E 004°19'0 0.0
2015-Mar-27 09:25N 51°19' E 004°19'0 0.0
2015-Mar-27 08:31N 51°19' E 004°19'1 1.1
2015-Mar-27 07:33N 51°20' E 004°18'1 0.9
2015-Mar-27 06:34N 51°21' E 004°17'3 3.3
2015-Mar-27 05:33N 51°23' E 004°13'7 6.6
2015-Mar-27 04:34N 51°23' E 004°02'5 5.5
2015-Mar-27 03:33N 51°21' E 003°54'1010.3
2015-Mar-27 02:33N 51°26' E 003°39'1110.6
2015-Mar-27 01:33N 51°24' E 003°23'1313.1
2015-Mar-27 00:33N 51°24' E 003°02'1212.0
2015-Mar-26 23:33N 51°22' E 002°43'6 5.5
2015-Mar-26 22:29N 51°20' E 002°34'0 0.0
2015-Mar-26 21:32N 51°20' E 002°34'0 0.1
2015-Mar-26 20:32N 51°20' E 002°34'0 0.0
2015-Mar-26 19:29N 51°20' E 002°34'0 0.0
2015-Mar-26 18:32N 51°20' E 002°34'0 0.0
2015-Mar-26 17:32N 51°20' E 002°34'0 0.0
2015-Mar-26 16:20N 51°20' E 002°34'0 0.0
2015-Mar-26 15:29N 51°20' E 002°34'0 0.0
2015-Mar-26 14:32N 51°20' E 002°34'0 0.2
2015-Mar-26 13:32N 51°20' E 002°34'0 0.0
2015-Mar-26 12:32N 51°20' E 002°34'0 0.0
2015-Mar-26 11:26N 51°20' E 002°34'0 0.1
2015-Mar-26 10:32N 51°20' E 002°34'0 0.0
2015-Mar-26 09:32N 51°20' E 002°34'0 0.0
2015-Mar-26 08:32N 51°20' E 002°34'0 0.0
2015-Mar-26 07:32N 51°20' E 002°34'0 0.0
2015-Mar-26 06:29N 51°20' E 002°34'0 0.0
2015-Mar-26 05:29N 51°20' E 002°34'0 0.0
2015-Mar-26 04:32N 51°20' E 002°34'0 0.0
2015-Mar-26 03:32N 51°20' E 002°34'0 0.0
2015-Mar-26 02:32N 51°20' E 002°34'0 0.2
2015-Mar-26 01:32N 51°20' E 002°34'0 0.1
2015-Mar-26 00:32N 51°20' E 002°33'0 0.0
2015-Mar-25 23:32N 51°20' E 002°33'0 0.0
2015-Mar-25 22:32N 51°20' E 002°33'0 0.0
2015-Mar-25 21:32N 51°20' E 002°33'0 0.0
2015-Mar-25 20:33N 51°20' E 002°33'8 7.7
2015-Mar-25 19:32N 51°19' E 002°21'1212.6
2015-Mar-25 18:33N 51°13' E 002°04'1313.2
2015-Mar-25 17:33N 51°05' E 001°47'1211.5
2015-Mar-25 16:33N 51°03' E 002°05'5 4.5
2015-Mar-25 15:31N 51°01' E 002°11'0 0.0
2015-Mar-25 14:20N 51°01' E 002°11'0 0.0
2015-Mar-25 13:25N 51°01' E 002°11'0 0.0
2015-Mar-25 12:28N 51°01' E 002°11'0 0.0
2015-Mar-25 11:28N 51°01' E 002°11'0 0.0
2015-Mar-25 10:31N 51°01' E 002°11'0 0.0
2015-Mar-25 09:31N 51°01' E 002°11'0 0.0
2015-Mar-25 08:28N 51°01' E 002°11'0 0.0
2015-Mar-25 07:19N 51°01' E 002°11'0 0.0
2015-Mar-25 06:22N 51°01' E 002°11'1 1.5
2015-Mar-25 05:33N 51°02' E 002°10'1413.7
2015-Mar-25 04:33N 51°03' E 001°49'0 0.2
2015-Mar-25 03:34N 51°03' E 001°49'5 4.9
2015-Mar-25 02:33N 51°01' E 001°41'8 8.1
2015-Mar-25 01:34N 50°56' E 001°32'7 6.7
2015-Mar-25 00:29N 50°50' E 001°27'  
2015-Mar-20 07:31N 49°42' W 000°45'1010.1
2015-Mar-20 06:33N 49°39' W 000°32'1111.1
2015-Mar-20 05:33N 49°34' W 000°16'  
Track history (hours):
 
Tides and Currents Weather Stations Pressure Air Temp Water Temp Dewpoint Dewpoint Depression Visibility Wind Speed Wind Dir Waves Ship Positions

Jork Reliance

Last reported at 2015-Mar-30 05:24 UTC. Time now 2015-Mar-31 18:10 UTC.
Position N 50°30' E 000°05'.

Length 141 m; draft 6.5 m.

Type: Cargo ship. MMSI: 305033000.

Date/timePositionNaut miles runAvg speedWind from/ knotsBaromVisibWave heightAir tempDewpointWater temp
2015-Mar-30 05:24N 50°30' E 000°05'1112.7
2015-Mar-30 04:33N 50°32' E 000°21'1312.9
2015-Mar-30 03:34N 50°37' E 000°40'1413.7
2015-Mar-30 02:33N 50°45' E 000°57'1414.3
2015-Mar-30 01:33N 50°54' E 001°16'1414.6
2015-Mar-30 00:33N 51°04' E 001°32'1212.0
2015-Mar-29 23:33N 51°02' E 001°51'1211.7
2015-Mar-29 22:33N 51°03' E 002°09'2 2.0
2015-Mar-29 21:32N 51°01' E 002°11'0 0.0
2015-Mar-29 20:32N 51°01' E 002°11'0 0.0
2015-Mar-29 19:26N 51°01' E 002°11'0 0.0
2015-Mar-29 18:32N 51°01' E 002°11'0 0.0
2015-Mar-29 17:32N 51°01' E 002°11'0 0.0
2015-Mar-29 16:32N 51°01' E 002°11'0 0.0
2015-Mar-29 15:32N 51°01' E 002°11'0 0.0
2015-Mar-29 14:29N 51°01' E 002°11'0 0.0
2015-Mar-29 13:29N 51°01' E 002°11'0 0.0
2015-Mar-29 12:32N 51°01' E 002°11'0 0.0
2015-Mar-29 11:32N 51°01' E 002°11'0 0.0
2015-Mar-29 10:33N 51°01' E 002°11'0 0.0
2015-Mar-29 09:31N 51°01' E 002°11'0 0.0
2015-Mar-29 08:28N 51°01' E 002°11'0 0.0
2015-Mar-29 07:32N 51°01' E 002°11'1 0.6
2015-Mar-29 06:32N 51°01' E 002°10'1313.1
2015-Mar-29 05:33N 51°03' E 001°50'3 3.1
2015-Mar-29 04:34N 51°04' E 001°46'7 7.4
2015-Mar-29 03:33N 51°11' E 001°44'6 5.7
2015-Mar-29 02:33N 51°16' E 001°49'1212.3
2015-Mar-29 01:33N 51°26' E 002°01'1313.1
2015-Mar-29 00:33N 51°22' E 002°21'1312.8
2015-Mar-28 23:33N 51°24' E 002°41'1010.1
2015-Mar-28 22:33N 51°23' E 002°58'1413.8
2015-Mar-28 21:33N 51°24' E 003°20'1212.1
2015-Mar-28 20:34N 51°26' E 003°39'1211.6
2015-Mar-28 19:34N 51°23' E 003°57'8 8.3
2015-Mar-28 18:34N 51°23' E 004°10'7 6.7
2015-Mar-28 17:34N 51°18' E 004°16'0 0.1
2015-Mar-28 16:33N 51°18' E 004°16'0 0.0
2015-Mar-28 15:30N 51°18' E 004°16'0 0.0
2015-Mar-28 14:30N 51°18' E 004°16'0 0.0
2015-Mar-28 13:33N 51°18' E 004°16'0 0.1
2015-Mar-28 12:33N 51°18' E 004°16'0 0.1
2015-Mar-28 11:34N 51°18' E 004°16'3 2.8
2015-Mar-28 10:33N 51°17' E 004°20'1 1.4
2015-Mar-28 09:33N 51°18' E 004°20'2 1.3
2015-Mar-28 08:19N 51°19' E 004°19'0 0.0
2015-Mar-28 07:31N 51°19' E 004°19'0 0.0
2015-Mar-28 06:31N 51°19' E 004°19'0 0.0
2015-Mar-28 05:31N 51°19' E 004°19'0 0.0
2015-Mar-28 04:28N 51°19' E 004°19'0 0.0
2015-Mar-28 03:31N 51°19' E 004°19'0 0.0
2015-Mar-28 02:31N 51°19' E 004°19'0 0.0
2015-Mar-28 01:31N 51°19' E 004°19'0 0.0
2015-Mar-28 00:31N 51°19' E 004°19'0 0.0
2015-Mar-27 23:31N 51°19' E 004°19'0 0.0
2015-Mar-27 22:31N 51°19' E 004°19'0 0.0
2015-Mar-27 21:28N 51°19' E 004°19'0 0.0
2015-Mar-27 20:31N 51°19' E 004°19'0 0.0
2015-Mar-27 19:31N 51°19' E 004°19'0 0.0
2015-Mar-27 18:31N 51°19' E 004°19'0 0.0
2015-Mar-27 17:28N 51°19' E 004°19'0 0.0
2015-Mar-27 16:28N 51°19' E 004°19'0 0.0
2015-Mar-27 15:31N 51°19' E 004°19'0 0.0
2015-Mar-27 14:28N 51°19' E 004°19'0 0.0
2015-Mar-27 13:28N 51°19' E 004°19'0 0.0
2015-Mar-27 12:25N 51°19' E 004°19'0 0.0
2015-Mar-27 11:31N 51°19' E 004°19'0 0.0
2015-Mar-27 10:28N 51°19' E 004°19'0 0.0
2015-Mar-27 09:25N 51°19' E 004°19'0 0.0
2015-Mar-27 08:31N 51°19' E 004°19'1 1.1
2015-Mar-27 07:33N 51°20' E 004°18'1 0.9
2015-Mar-27 06:34N 51°21' E 004°17'3 3.3
2015-Mar-27 05:33N 51°23' E 004°13'7 6.6
2015-Mar-27 04:34N 51°23' E 004°02'5 5.5
2015-Mar-27 03:33N 51°21' E 003°54'1010.3
2015-Mar-27 02:33N 51°26' E 003°39'1110.6
2015-Mar-27 01:33N 51°24' E 003°23'1313.1
2015-Mar-27 00:33N 51°24' E 003°02'1212.0
2015-Mar-26 23:33N 51°22' E 002°43'6 5.5
2015-Mar-26 22:29N 51°20' E 002°34'0 0.0
2015-Mar-26 21:32N 51°20' E 002°34'0 0.1
2015-Mar-26 20:32N 51°20' E 002°34'0 0.0
2015-Mar-26 19:29N 51°20' E 002°34'0 0.0
2015-Mar-26 18:32N 51°20' E 002°34'0 0.0
2015-Mar-26 17:32N 51°20' E 002°34'0 0.0
2015-Mar-26 16:20N 51°20' E 002°34'0 0.0
2015-Mar-26 15:29N 51°20' E 002°34'0 0.0
2015-Mar-26 14:32N 51°20' E 002°34'0 0.2
2015-Mar-26 13:32N 51°20' E 002°34'0 0.0
2015-Mar-26 12:32N 51°20' E 002°34'0 0.0
2015-Mar-26 11:26N 51°20' E 002°34'0 0.1
2015-Mar-26 10:32N 51°20' E 002°34'0 0.0
2015-Mar-26 09:32N 51°20' E 002°34'0 0.0
2015-Mar-26 08:32N 51°20' E 002°34'0 0.0
2015-Mar-26 07:32N 51°20' E 002°34'0 0.0
2015-Mar-26 06:29N 51°20' E 002°34'0 0.0
2015-Mar-26 05:29N 51°20' E 002°34'0 0.0
2015-Mar-26 04:32N 51°20' E 002°34'0 0.0
2015-Mar-26 03:32N 51°20' E 002°34'0 0.0
2015-Mar-26 02:32N 51°20' E 002°34'0 0.2
2015-Mar-26 01:32N 51°20' E 002°34'0 0.1
2015-Mar-26 00:32N 51°20' E 002°33'0 0.0
2015-Mar-25 23:32N 51°20' E 002°33'0 0.0
2015-Mar-25 22:32N 51°20' E 002°33'0 0.0
2015-Mar-25 21:32N 51°20' E 002°33'0 0.0
2015-Mar-25 20:33N 51°20' E 002°33'8 7.7
2015-Mar-25 19:32N 51°19' E 002°21'1212.6
2015-Mar-25 18:33N 51°13' E 002°04'1313.2
2015-Mar-25 17:33N 51°05' E 001°47'1211.5
2015-Mar-25 16:33N 51°03' E 002°05'5 4.5
2015-Mar-25 15:31N 51°01' E 002°11'0 0.0
2015-Mar-25 14:20N 51°01' E 002°11'0 0.0
2015-Mar-25 13:25N 51°01' E 002°11'0 0.0
2015-Mar-25 12:28N 51°01' E 002°11'0 0.0
2015-Mar-25 11:28N 51°01' E 002°11'0 0.0
2015-Mar-25 10:31N 51°01' E 002°11'0 0.0
2015-Mar-25 09:31N 51°01' E 002°11'0 0.0
2015-Mar-25 08:28N 51°01' E 002°11'0 0.0
2015-Mar-25 07:19N 51°01' E 002°11'0 0.0
2015-Mar-25 06:22N 51°01' E 002°11'1 1.5
2015-Mar-25 05:33N 51°02' E 002°10'1413.7
2015-Mar-25 04:33N 51°03' E 001°49'0 0.2
2015-Mar-25 03:34N 51°03' E 001°49'5 4.9
2015-Mar-25 02:33N 51°01' E 001°41'8 8.1
2015-Mar-25 01:34N 50°56' E 001°32'7 6.7
2015-Mar-25 00:29N 50°50' E 001°27'  
2015-Mar-20 07:31N 49°42' W 000°45'1010.1
2015-Mar-20 06:33N 49°39' W 000°32'1111.1
2015-Mar-20 05:33N 49°34' W 000°16'  

Dump ship's entire track history